createdAt,value
2022-09-15T00:30:20.256Z,997.48
2022-09-15T00:31:01.077Z,997.46
2022-09-15T00:31:41.461Z,997.46
2022-09-15T00:32:21.998Z,997.48
2022-09-15T00:33:02.466Z,997.49
2022-09-15T00:33:43.896Z,997.55
2022-09-15T00:34:23.434Z,997.5
2022-09-15T00:35:03.949Z,997.49
2022-09-15T00:35:44.427Z,997.49
2022-09-15T00:36:24.912Z,997.51
2022-09-15T00:37:05.378Z,997.5
2022-09-15T00:37:45.868Z,997.49
2022-09-15T00:38:26.344Z,997.53
2022-09-15T00:39:47.345Z,997.57
2022-09-15T00:40:27.815Z,997.56
2022-09-15T00:41:08.295Z,997.58
2022-09-15T00:41:48.801Z,997.58
2022-09-15T00:42:29.278Z,997.57
2022-09-15T00:43:09.795Z,997.61
2022-09-15T00:43:50.455Z,997.59
2022-09-15T00:44:30.727Z,997.57
2022-09-15T00:45:11.243Z,997.61
2022-09-15T00:45:51.794Z,997.59
2022-09-15T00:46:32.232Z,997.58
2022-09-15T00:47:19.419Z,997.59
2022-09-15T00:47:53.201Z,997.6
2022-09-15T00:48:33.693Z,997.6
2022-09-15T00:49:58.343Z,997.62
2022-09-15T00:50:35.150Z,997.62
2022-09-15T00:51:15.645Z,997.61
2022-09-15T00:51:56.182Z,997.64
2022-09-15T00:52:36.690Z,997.6
2022-09-15T00:53:17.153Z,997.61
2022-09-15T00:53:57.635Z,997.61
2022-09-15T00:54:38.136Z,997.63
2022-09-15T00:55:18.646Z,997.63
2022-09-15T00:55:59.166Z,997.65
2022-09-15T00:56:40.404Z,997.66
2022-09-15T00:57:20.196Z,997.63
2022-09-15T00:58:00.660Z,997.63
2022-09-15T00:58:41.137Z,997.64
2022-09-15T00:59:21.597Z,997.64
2022-09-15T01:00:02.100Z,997.64
2022-09-15T01:00:42.635Z,997.67
2022-09-15T01:01:23.099Z,997.64
2022-09-15T01:02:03.549Z,997.64
2022-09-15T01:02:43.977Z,997.64
2022-09-15T01:03:24.441Z,997.62
2022-09-15T01:04:04.925Z,997.59
2022-09-15T01:04:45.401Z,997.62
2022-09-15T01:05:25.910Z,997.61
2022-09-15T01:06:06.392Z,997.62
2022-09-15T01:06:46.916Z,997.64
2022-09-15T01:07:27.348Z,997.58
2022-09-15T01:08:07.813Z,997.63
2022-09-15T01:08:48.279Z,997.62
2022-09-15T01:09:28.763Z,997.64
2022-09-15T01:10:09.270Z,997.63
2022-09-15T01:10:49.813Z,997.61
2022-09-15T01:11:30.289Z,997.66
2022-09-15T01:12:10.804Z,997.64
2022-09-15T01:13:31.751Z,997.67
2022-09-15T01:14:12.929Z,997.67
2022-09-15T01:14:53.443Z,997.65
2022-09-15T01:15:33.962Z,997.66
2022-09-15T01:16:14.459Z,997.62
2022-09-15T01:16:54.965Z,997.65
2022-09-15T01:17:35.424Z,997.63
2022-09-15T01:18:15.890Z,997.58
2022-09-15T01:18:56.427Z,997.6
2022-09-15T01:19:36.888Z,997.63
2022-09-15T01:20:17.463Z,997.6
2022-09-15T01:20:57.865Z,997.61
2022-09-15T01:21:38.351Z,997.6
2022-09-15T01:22:18.859Z,997.62
2022-09-15T01:22:59.410Z,997.63
2022-09-15T01:23:39.985Z,997.6
2022-09-15T01:25:01.816Z,997.6
2022-09-15T01:25:42.320Z,997.64
2022-09-15T01:26:22.883Z,997.65
2022-09-15T01:27:13.808Z,997.66
2022-09-15T01:27:43.878Z,997.64
2022-09-15T01:28:24.348Z,997.62
2022-09-15T01:29:04.851Z,997.63
2022-09-15T01:29:45.327Z,997.66
2022-09-15T01:30:25.800Z,997.65
2022-09-15T01:31:06.311Z,997.57
2022-09-15T01:31:46.858Z,997.59
2022-09-15T01:32:27.391Z,997.61
2022-09-15T01:33:48.343Z,997.58
2022-09-15T01:34:28.843Z,997.58
2022-09-15T01:35:09.366Z,997.62
2022-09-15T01:35:49.925Z,997.59
2022-09-15T01:36:30.438Z,997.61
2022-09-15T01:37:10.991Z,997.57
2022-09-15T01:37:51.489Z,997.57
2022-09-15T01:39:12.522Z,997.6
2022-09-15T01:39:53.120Z,997.56
2022-09-15T01:40:33.579Z,997.54
2022-09-15T01:41:54.536Z,997.53
2022-09-15T01:42:35.041Z,997.57
2022-09-15T01:43:15.472Z,997.54
2022-09-15T01:43:56.003Z,997.56
2022-09-15T01:44:36.450Z,997.57
2022-09-15T01:45:17.072Z,997.57
2022-09-15T01:45:57.647Z,997.59
2022-09-15T01:46:37.993Z,997.58
2022-09-15T01:47:18.518Z,997.57
2022-09-15T01:47:59.111Z,997.61
2022-09-15T01:48:39.540Z,997.57
2022-09-15T01:49:20.002Z,997.54
2022-09-15T01:50:00.496Z,997.58
2022-09-15T01:50:40.984Z,997.62
2022-09-15T01:52:02.049Z,997.63
2022-09-15T01:52:42.554Z,997.61
2022-09-15T01:53:23.030Z,997.61
2022-09-15T01:54:03.535Z,997.59
2022-09-15T01:54:44.022Z,997.61
2022-09-15T01:55:24.520Z,997.36
2022-09-15T01:56:04.982Z,997.61
2022-09-15T01:56:45.502Z,997.57
2022-09-15T01:57:25.970Z,997.6
2022-09-15T01:58:06.456Z,997.63
2022-09-15T01:58:46.990Z,997.61
2022-09-15T01:59:27.432Z,997.59
2022-09-15T02:00:07.967Z,997.61
2022-09-15T02:00:48.493Z,997.59
2022-09-15T02:01:29.086Z,997.61
2022-09-15T02:02:09.570Z,997.59
2022-09-15T02:02:49.994Z,997.57
2022-09-15T02:03:30.436Z,997.6
2022-09-15T02:04:10.974Z,997.6
2022-09-15T02:04:51.456Z,997.6
2022-09-15T02:05:31.967Z,997.6
2022-09-15T02:06:12.516Z,997.56
2022-09-15T02:06:52.966Z,997.58
2022-09-15T02:10:06.776Z,997.58
2022-09-15T02:10:47.066Z,997.56
2022-09-15T02:11:27.536Z,997.56
2022-09-15T02:12:08.021Z,997.55
2022-09-15T02:12:48.486Z,997.55
2022-09-15T02:13:28.981Z,997.56
2022-09-15T02:14:09.483Z,997.59
2022-09-15T02:14:50.002Z,997.59
2022-09-15T02:15:30.482Z,997.59
2022-09-15T02:16:11.101Z,997.6
2022-09-15T02:16:51.498Z,997.59
2022-09-15T02:17:32.014Z,997.6
2022-09-15T02:18:12.533Z,997.59
2022-09-15T02:18:53.035Z,997.59
2022-09-15T02:19:33.520Z,997.68
2022-09-15T02:20:14.065Z,997.66
2022-09-15T02:20:54.555Z,997.68
2022-09-15T02:21:35.043Z,997.65
2022-09-15T02:22:56.057Z,997.64
2022-09-15T02:23:36.524Z,997.63
2022-09-15T02:24:17.004Z,997.6
2022-09-15T02:24:57.576Z,997.63
2022-09-15T02:25:38.056Z,997.57
2022-09-15T02:26:18.647Z,997.58
2022-09-15T02:26:59.142Z,997.56
2022-09-15T02:27:39.686Z,997.52
2022-09-15T02:28:20.150Z,997.52
2022-09-15T02:29:00.652Z,997.51
2022-09-15T02:29:41.152Z,997.48
2022-09-15T02:30:21.634Z,997.52
2022-09-15T02:31:02.146Z,997.54
2022-09-15T02:31:42.823Z,997.55
2022-09-15T02:32:23.146Z,997.57
2022-09-15T02:33:03.604Z,997.55
2022-09-15T02:33:44.090Z,997.55
2022-09-15T02:34:24.612Z,997.56
2022-09-15T02:35:05.035Z,997.57
2022-09-15T02:35:45.490Z,997.56
2022-09-15T02:36:26.020Z,997.57
2022-09-15T02:37:06.515Z,997.57
2022-09-15T02:37:47.032Z,997.57
2022-09-15T02:38:27.462Z,997.59
2022-09-15T02:39:07.958Z,997.61
2022-09-15T02:39:48.444Z,997.58
2022-09-15T02:40:28.980Z,997.55
2022-09-15T02:41:09.473Z,997.52
2022-09-15T02:41:50.030Z,997.55
2022-09-15T02:43:11.080Z,997.53
2022-09-15T02:43:51.550Z,997.55
2022-09-15T02:44:32.091Z,997.57
2022-09-15T02:45:12.591Z,997.54
2022-09-15T02:45:53.196Z,997.53
2022-09-15T02:46:33.611Z,997.56
2022-09-15T02:47:14.087Z,997.53
2022-09-15T02:47:54.557Z,997.56
2022-09-15T02:48:35.063Z,997.57
2022-09-15T02:49:15.504Z,997.55
2022-09-15T02:49:55.997Z,997.57
2022-09-15T02:50:36.468Z,997.58
2022-09-15T02:51:17.013Z,997.58
2022-09-15T02:51:57.553Z,997.61
2022-09-15T02:52:38.624Z,997.58
2022-09-15T02:53:19.069Z,997.58
2022-09-15T02:53:59.647Z,997.6
2022-09-15T02:54:40.168Z,997.6
2022-09-15T02:55:20.639Z,997.65
2022-09-15T02:56:01.105Z,997.62
2022-09-15T02:56:41.627Z,997.66
2022-09-15T02:57:22.077Z,997.61
2022-09-15T02:58:02.620Z,997.6
2022-09-15T02:58:43.079Z,997.64
2022-09-15T02:59:23.601Z,997.64
2022-09-15T03:00:04.129Z,997.62
2022-09-15T03:00:44.646Z,997.6
2022-09-15T03:01:25.093Z,997.63
2022-09-15T03:02:05.619Z,997.6
2022-09-15T03:02:46.123Z,997.65
2022-09-15T03:03:26.620Z,997.63
2022-09-15T03:04:07.091Z,997.61
2022-09-15T03:04:47.639Z,997.6
2022-09-15T03:06:08.626Z,997.59
2022-09-15T03:06:49.162Z,997.6
2022-09-15T03:07:29.651Z,997.62
2022-09-15T03:08:10.151Z,997.61
2022-09-15T03:08:50.923Z,997.58
2022-09-15T03:09:31.147Z,997.59
2022-09-15T03:10:11.627Z,997.56
2022-09-15T03:10:52.092Z,997.65
2022-09-15T03:11:32.533Z,997.63
2022-09-15T03:12:13.032Z,997.61
2022-09-15T03:12:53.522Z,997.6
2022-09-15T03:13:34.016Z,997.62
2022-09-15T03:14:14.479Z,997.61
2022-09-15T03:14:54.965Z,997.6
2022-09-15T03:15:35.480Z,997.57
2022-09-15T03:16:15.985Z,997.61
2022-09-15T03:16:56.462Z,997.61
2022-09-15T03:17:36.935Z,997.62
2022-09-15T03:18:17.424Z,997.63
2022-09-15T03:18:57.967Z,997.64
2022-09-15T03:19:38.428Z,997.66
2022-09-15T03:20:18.896Z,997.68
2022-09-15T03:20:59.555Z,997.67
2022-09-15T03:21:39.826Z,997.69
2022-09-15T03:22:20.301Z,997.7
2022-09-15T03:23:00.832Z,997.7
2022-09-15T03:23:41.355Z,997.74
2022-09-15T03:24:21.841Z,997.7
2022-09-15T03:25:02.388Z,997.75
2022-09-15T03:25:42.851Z,997.76
2022-09-15T03:26:23.420Z,997.76
2022-09-15T03:27:03.949Z,997.75
2022-09-15T03:27:44.403Z,997.74
2022-09-15T03:28:24.915Z,997.76
2022-09-15T03:29:05.386Z,997.77
2022-09-15T03:29:45.864Z,997.78
2022-09-15T03:30:26.372Z,997.76
2022-09-15T03:31:06.893Z,997.77
2022-09-15T03:31:47.425Z,997.79
2022-09-15T03:32:27.855Z,997.78
2022-09-15T03:33:08.295Z,997.77
2022-09-15T03:33:48.860Z,997.82
2022-09-15T03:34:29.302Z,997.77
2022-09-15T03:35:09.813Z,997.78
2022-09-15T03:35:50.310Z,997.78
2022-09-15T03:36:30.816Z,997.75
2022-09-15T03:37:11.286Z,997.74
2022-09-15T03:37:51.754Z,997.75
2022-09-15T03:38:32.271Z,997.74
2022-09-15T03:39:12.758Z,997.77
2022-09-15T03:39:53.355Z,997.72
2022-09-15T03:40:34.476Z,997.71
2022-09-15T03:41:14.966Z,997.71
2022-09-15T03:41:55.536Z,997.74
2022-09-15T03:42:35.995Z,997.73
2022-09-15T03:43:18.688Z,997.68
2022-09-15T03:43:56.957Z,997.69
2022-09-15T03:44:37.449Z,997.66
2022-09-15T03:45:17.906Z,997.63
2022-09-15T03:45:58.429Z,997.64
2022-09-15T03:49:12.014Z,997.61
2022-09-15T03:49:52.516Z,997.65
2022-09-15T03:50:32.972Z,997.67
2022-09-15T03:51:13.449Z,997.65
2022-09-15T03:51:53.978Z,997.63
2022-09-15T03:52:34.435Z,997.66
2022-09-15T03:53:14.906Z,997.66
2022-09-15T03:53:55.610Z,997.66
2022-09-15T03:54:36.127Z,997.67
2022-09-15T03:55:16.619Z,997.67
2022-09-15T03:55:57.142Z,997.73
2022-09-15T03:56:37.649Z,997.75
2022-09-15T03:57:18.159Z,997.76
2022-09-15T03:57:58.670Z,997.74
2022-09-15T03:58:39.163Z,997.78
2022-09-15T03:59:19.661Z,997.79
2022-09-15T04:00:00.206Z,997.75
2022-09-15T04:00:40.755Z,997.75
2022-09-15T04:01:21.274Z,997.76
2022-09-15T04:02:01.791Z,997.76
2022-09-15T04:02:42.218Z,997.74
2022-09-15T04:03:22.758Z,997.76
2022-09-15T04:04:03.227Z,997.75
2022-09-15T04:04:43.763Z,997.74
2022-09-15T04:05:24.203Z,997.73
2022-09-15T04:06:04.676Z,997.69
2022-09-15T04:06:45.202Z,997.72
2022-09-15T04:07:25.683Z,997.7
2022-09-15T04:08:46.685Z,997.76
2022-09-15T04:09:27.215Z,997.73
2022-09-15T04:10:07.757Z,997.72
2022-09-15T04:10:48.286Z,997.72
2022-09-15T04:11:28.765Z,997.71
2022-09-15T04:12:09.252Z,997.73
2022-09-15T04:12:49.790Z,997.75
2022-09-15T04:13:31.077Z,997.7
2022-09-15T04:14:11.672Z,997.75
2022-09-15T04:14:52.101Z,997.74
2022-09-15T04:16:13.116Z,997.77
2022-09-15T04:16:53.640Z,997.75
2022-09-15T04:17:34.106Z,997.75
2022-09-15T04:18:55.043Z,997.74
2022-09-15T04:19:35.556Z,997.72
2022-09-15T04:20:16.087Z,997.75
2022-09-15T04:20:56.946Z,997.75
2022-09-15T04:21:37.404Z,997.74
2022-09-15T04:22:18.155Z,997.76
2022-09-15T04:22:58.480Z,997.79
2022-09-15T04:23:38.921Z,997.75
2022-09-15T04:24:19.442Z,997.75
2022-09-15T04:24:59.885Z,997.75
2022-09-15T04:25:40.511Z,997.72
2022-09-15T04:26:21.064Z,997.74
2022-09-15T04:27:01.510Z,997.72
2022-09-15T04:27:41.997Z,997.72
2022-09-15T04:28:22.519Z,997.77
2022-09-15T04:29:04.371Z,997.77
2022-09-15T04:29:43.522Z,997.75
2022-09-15T04:30:23.961Z,997.78
2022-09-15T04:31:04.488Z,997.76
2022-09-15T04:31:45.099Z,997.76
2022-09-15T04:32:25.555Z,997.79
2022-09-15T04:33:06.023Z,997.74
2022-09-15T04:33:46.483Z,997.81
2022-09-15T04:34:26.962Z,997.74
2022-09-15T04:35:07.489Z,997.76
2022-09-15T04:35:47.987Z,997.79
2022-09-15T04:36:28.621Z,997.76
2022-09-15T04:37:08.965Z,997.76
2022-09-15T04:37:49.495Z,997.74
2022-09-15T04:38:29.974Z,997.75
2022-09-15T04:39:10.700Z,997.72
2022-09-15T04:39:51.334Z,997.77
2022-09-15T04:40:31.884Z,997.73
2022-09-15T04:41:12.365Z,997.79
2022-09-15T04:41:52.931Z,997.77
2022-09-15T04:42:33.448Z,997.81
2022-09-15T04:43:14.650Z,997.82
2022-09-15T04:43:55.152Z,997.82
2022-09-15T04:44:35.619Z,997.8
2022-09-15T04:45:16.211Z,997.81
2022-09-15T04:45:56.724Z,997.8
2022-09-15T04:46:37.267Z,997.79
2022-09-15T04:47:17.734Z,997.79
2022-09-15T04:47:58.161Z,997.79
2022-09-15T04:48:38.689Z,997.84
2022-09-15T04:49:19.177Z,997.79
2022-09-15T04:49:59.734Z,997.75
2022-09-15T04:50:40.210Z,997.7
2022-09-15T04:51:20.749Z,997.73
2022-09-15T04:52:01.346Z,997.72
2022-09-15T04:52:41.836Z,997.71
2022-09-15T04:53:22.333Z,997.73
2022-09-15T04:54:02.865Z,997.7
2022-09-15T04:54:43.380Z,997.68
2022-09-15T04:58:02.359Z,997.5
2022-09-15T04:58:42.975Z,997.56
2022-09-15T04:59:23.465Z,997.54
2022-09-15T05:00:03.974Z,997.56
2022-09-15T05:00:44.537Z,997.59
2022-09-15T05:01:25.072Z,997.62
2022-09-15T05:02:05.584Z,997.65
2022-09-15T05:02:46.087Z,997.69
2022-09-15T05:03:26.605Z,997.7
2022-09-15T05:04:07.076Z,997.7
2022-09-15T05:04:47.599Z,997.69
2022-09-15T05:05:28.135Z,997.7
2022-09-15T05:06:08.715Z,997.74
2022-09-15T05:06:49.245Z,997.73
2022-09-15T05:07:29.750Z,997.74
2022-09-15T05:08:10.270Z,997.75
2022-09-15T05:08:50.966Z,997.76
2022-09-15T05:09:31.294Z,997.77
2022-09-15T05:10:11.841Z,997.78
2022-09-15T05:10:52.380Z,997.79
2022-09-15T05:11:32.842Z,997.76
2022-09-15T05:12:13.464Z,997.81
2022-09-15T05:12:54.039Z,997.76
2022-09-15T05:13:35.196Z,997.8
2022-09-15T05:14:15.690Z,997.8
2022-09-15T05:14:56.193Z,997.81
2022-09-15T05:15:36.787Z,997.8
2022-09-15T05:16:17.405Z,997.81
2022-09-15T05:16:57.777Z,997.82
2022-09-15T05:17:38.236Z,997.8
2022-09-15T05:18:19.372Z,997.84
2022-09-15T05:19:00.517Z,997.83
2022-09-15T05:19:41.065Z,997.86
2022-09-15T05:21:02.727Z,997.86
2022-09-15T05:21:43.241Z,997.9
2022-09-15T05:22:23.706Z,997.9
2022-09-15T05:23:04.251Z,997.9
2022-09-15T05:23:44.767Z,997.9
2022-09-15T05:24:25.230Z,997.93
2022-09-15T05:25:05.745Z,997.9
2022-09-15T05:25:46.338Z,997.9
2022-09-15T05:26:26.791Z,997.91
2022-09-15T05:27:07.271Z,997.95
2022-09-15T05:27:47.946Z,997.88
2022-09-15T05:28:28.438Z,997.9
2022-09-15T05:29:08.979Z,997.91
2022-09-15T05:29:49.501Z,997.91
2022-09-15T05:30:37.996Z,997.91
2022-09-15T05:31:10.658Z,997.91
2022-09-15T05:31:51.794Z,997.92
2022-09-15T05:32:32.269Z,997.91
2022-09-15T05:33:12.737Z,997.92
2022-09-15T05:33:53.397Z,997.91
2022-09-15T05:34:33.902Z,997.89
2022-09-15T05:35:14.364Z,997.92
2022-09-15T05:35:54.915Z,997.92
2022-09-15T05:39:08.876Z,997.87
2022-09-15T05:39:49.670Z,997.86
2022-09-15T05:40:30.151Z,997.88
2022-09-15T05:41:10.596Z,997.89
2022-09-15T05:41:51.163Z,997.93
2022-09-15T05:42:31.653Z,997.91
2022-09-15T05:43:12.132Z,997.91
2022-09-15T05:43:52.743Z,997.9
2022-09-15T05:44:33.166Z,997.94
2022-09-15T05:45:13.750Z,997.93
2022-09-15T05:45:55.976Z,997.96
2022-09-15T05:46:36.560Z,997.95
2022-09-15T05:47:17.048Z,997.96
2022-09-15T05:47:58.098Z,997.99
2022-09-15T05:48:38.528Z,997.98
2022-09-15T05:49:19.082Z,997.98
2022-09-15T05:49:59.613Z,998.01
2022-09-15T05:50:40.082Z,998.04
2022-09-15T05:51:21.688Z,998.02
2022-09-15T05:52:02.228Z,998.07
2022-09-15T05:52:42.720Z,998.03
2022-09-15T06:32:17.395Z,998.27
2022-09-15T06:32:58.217Z,998.27
2022-09-15T06:33:41.838Z,998.29
2022-09-15T06:34:22.833Z,998.3
2022-09-15T06:35:04.134Z,998.26
2022-09-15T06:35:44.914Z,998.25
2022-09-15T06:36:25.928Z,998.27
2022-09-15T06:37:07.054Z,998.3
2022-09-15T06:37:48.084Z,998.29
2022-09-15T06:38:29.207Z,998.33
2022-09-15T06:39:10.282Z,998.33
2022-09-15T06:39:51.426Z,998.34
2022-09-15T06:40:32.540Z,998.33
2022-09-15T06:41:17.872Z,998.35
2022-09-15T06:42:05.766Z,998.35
2022-09-15T06:42:38.191Z,998.31
2022-09-15T06:43:19.247Z,998.37
2022-09-15T06:44:00.289Z,998.4
2022-09-15T06:44:41.420Z,998.41
2022-09-15T06:45:22.409Z,998.38
2022-09-15T06:46:03.436Z,998.39
2022-09-15T06:46:44.454Z,998.4
2022-09-15T06:47:25.437Z,998.41
2022-09-15T06:48:23.261Z,998.45
2022-09-15T06:48:48.601Z,998.4
2022-09-15T06:49:28.816Z,998.44
2022-09-15T06:50:09.855Z,998.46
2022-09-15T06:50:50.761Z,998.45
2022-09-15T06:51:31.859Z,998.52
2022-09-15T06:52:12.998Z,998.5
2022-09-15T06:52:54.230Z,998.53
2022-09-15T06:53:35.407Z,998.53
2022-09-15T06:54:16.565Z,998.5
2022-09-15T06:54:57.660Z,998.52
2022-09-15T06:55:38.895Z,998.54
2022-09-15T06:56:19.873Z,998.52
2022-09-15T06:57:00.870Z,998.52
2022-09-15T06:57:41.901Z,998.57
2022-09-15T06:58:23.372Z,998.57
2022-09-15T06:59:04.591Z,998.55
2022-09-15T06:59:45.566Z,998.56
2022-09-15T07:00:26.553Z,998.52
2022-09-15T07:01:07.712Z,998.53
2022-09-15T07:01:48.794Z,998.55
2022-09-15T07:02:30.052Z,998.54
2022-09-15T07:03:11.082Z,998.61
2022-09-15T07:03:52.260Z,998.58
2022-09-15T07:04:33.217Z,998.55
2022-09-15T07:05:14.261Z,998.57
2022-09-15T07:05:55.299Z,998.6
2022-09-15T07:06:36.387Z,998.59
2022-09-15T07:07:17.595Z,998.62
2022-09-15T07:07:58.453Z,998.66
2022-09-15T07:08:39.456Z,998.61
2022-09-15T07:09:20.742Z,998.64
2022-09-15T07:10:01.810Z,998.68
2022-09-15T07:10:42.762Z,998.65
2022-09-15T07:11:23.790Z,998.67
2022-09-15T07:12:04.837Z,998.68
2022-09-15T07:12:45.836Z,998.66
2022-09-15T07:13:26.861Z,998.69
2022-09-15T07:14:07.881Z,998.69
2022-09-15T07:17:22.961Z,998.74
2022-09-15T07:18:04.281Z,998.74
2022-09-15T07:18:44.693Z,998.74
2022-09-15T07:19:25.261Z,998.82
2022-09-15T07:20:05.843Z,998.8
2022-09-15T07:20:46.390Z,998.83
2022-09-15T07:21:27.064Z,998.81
2022-09-15T07:22:07.548Z,998.81
2022-09-15T07:22:48.054Z,998.78
2022-09-15T07:23:29.892Z,998.81
2022-09-15T07:24:10.523Z,998.82
2022-09-15T07:24:51.059Z,998.82
2022-09-15T07:25:31.665Z,998.77
2022-09-15T07:26:12.169Z,998.81
2022-09-15T07:26:52.721Z,998.82
2022-09-15T07:27:33.278Z,998.83
2022-09-15T07:28:13.859Z,998.83
2022-09-15T07:28:54.362Z,998.82
2022-09-15T07:29:37.766Z,998.83
2022-09-15T07:30:15.367Z,998.8
2022-09-15T07:30:55.903Z,998.83
2022-09-15T07:31:36.459Z,998.83
2022-09-15T07:32:16.953Z,998.84
2022-09-15T07:32:57.422Z,998.84
2022-09-15T07:33:37.958Z,998.84
2022-09-15T07:34:18.464Z,998.86
2022-09-15T07:34:58.977Z,998.84
2022-09-15T07:35:39.600Z,998.87
2022-09-15T07:36:20.137Z,998.86
2022-09-15T07:39:50.527Z,998.84
2022-09-15T07:40:30.728Z,998.88
2022-09-15T07:43:49.971Z,998.84
2022-09-15T07:44:31.566Z,998.83
2022-09-15T07:45:11.995Z,998.88
2022-09-15T07:45:52.666Z,998.84
2022-09-15T07:46:33.112Z,998.88
2022-09-15T07:50:02.117Z,998.92
2022-09-15T07:50:42.579Z,998.9
2022-09-15T07:51:23.228Z,998.91
2022-09-15T07:52:03.760Z,998.92
2022-09-15T07:52:45.123Z,998.93
2022-09-15T07:53:27.426Z,998.95
2022-09-15T07:54:08.155Z,998.93
2022-09-15T07:54:49.019Z,998.9
2022-09-15T07:55:29.505Z,998.95
2022-09-15T07:56:10.307Z,998.92
2022-09-15T07:56:50.841Z,998.92
2022-09-15T07:57:31.417Z,998.91
2022-09-15T07:58:12.516Z,998.95
2022-09-15T07:58:53.057Z,998.94
2022-09-15T07:59:33.536Z,998.97
2022-09-15T08:00:14.068Z,998.99
2022-09-15T08:00:54.655Z,999.02
2022-09-15T08:01:35.233Z,999.04
2022-09-15T08:02:15.766Z,999.01
2022-09-15T08:03:36.941Z,999.06
2022-09-15T08:04:17.485Z,998.99
2022-09-15T08:04:58.014Z,999.03
2022-09-15T08:05:43.575Z,998.99
2022-09-15T08:06:20.875Z,998.96
2022-09-15T08:07:02.069Z,998.95
2022-09-15T08:07:42.483Z,998.97
2022-09-15T08:08:24.237Z,998.95
2022-09-15T08:09:08.031Z,998.96
2022-09-15T08:09:48.724Z,999.02
2022-09-15T08:10:29.248Z,998.96
2022-09-15T08:11:09.853Z,998.99
2022-09-15T08:11:50.332Z,998.98
2022-09-15T08:15:07.907Z,999.05
2022-09-15T08:15:49.024Z,999
2022-09-15T08:16:29.517Z,999.04
2022-09-15T08:17:11.604Z,999.05
2022-09-15T08:17:50.614Z,999.05
2022-09-15T08:18:31.181Z,999.06
2022-09-15T08:19:11.642Z,999.05
2022-09-15T08:19:52.268Z,999.03
2022-09-15T08:20:32.902Z,999.06
2022-09-15T08:21:13.496Z,999.11
2022-09-15T08:21:54.424Z,999.1
2022-09-15T08:24:54.036Z,999.32
2022-09-15T08:25:35.656Z,999.27
2022-09-15T08:26:17.103Z,999.3
2022-09-15T08:29:36.227Z,999.32
2022-09-15T08:30:16.832Z,999.29
2022-09-15T08:30:57.490Z,999.33
2022-09-15T08:31:38.004Z,999.34
2022-09-15T08:34:52.020Z,999.37
2022-09-15T08:35:32.714Z,999.39
2022-09-15T08:36:13.194Z,999.38
2022-09-15T08:36:53.732Z,999.41
2022-09-15T08:37:34.384Z,999.4
2022-09-15T08:38:14.872Z,999.42
2022-09-15T08:38:55.367Z,999.45
2022-09-15T08:39:35.967Z,999.44
2022-09-15T08:40:16.744Z,999.47
2022-09-15T08:40:57.233Z,999.48
2022-09-15T08:41:37.747Z,999.52
2022-09-15T08:42:18.377Z,999.51
2022-09-15T08:42:59.014Z,999.51
2022-09-15T08:43:39.542Z,999.53
2022-09-15T08:44:20.098Z,999.54
2022-09-15T08:45:00.647Z,999.52
2022-09-15T08:45:41.176Z,999.52
2022-09-15T08:46:21.702Z,999.52
2022-09-15T08:47:02.197Z,999.55
2022-09-15T08:47:42.687Z,999.52
2022-09-15T08:48:23.217Z,999.57
2022-09-15T08:49:03.736Z,999.57
2022-09-15T08:49:52.567Z,999.56
2022-09-15T08:50:25.007Z,999.52
2022-09-15T08:51:05.354Z,999.57
2022-09-15T08:51:46.039Z,999.62
2022-09-15T08:52:26.687Z,999.61
2022-09-15T08:53:07.126Z,999.63
2022-09-15T08:53:47.646Z,999.62
2022-09-15T08:54:28.161Z,999.62
2022-09-15T08:55:08.726Z,999.63
2022-09-15T08:55:49.273Z,999.66
2022-09-15T08:56:29.815Z,999.61
2022-09-15T08:57:10.440Z,999.61
2022-09-15T08:57:50.988Z,999.65
2022-09-15T08:58:31.590Z,999.67
2022-09-15T08:59:12.385Z,999.72
2022-09-15T08:59:52.902Z,999.72
2022-09-15T09:00:33.733Z,999.69
2022-09-15T09:01:14.490Z,999.71
2022-09-15T09:01:54.868Z,999.71
2022-09-15T09:02:35.429Z,999.75
2022-09-15T09:03:16.101Z,999.75
2022-09-15T09:03:56.875Z,999.79
2022-09-15T09:04:37.457Z,999.69
2022-09-15T09:05:18.007Z,999.73
2022-09-15T09:05:58.517Z,999.72
2022-09-15T09:06:39.034Z,999.71
2022-09-15T09:07:19.733Z,999.7
2022-09-15T09:08:01.704Z,999.71
2022-09-15T09:08:42.407Z,999.69
2022-09-15T09:09:22.916Z,999.71
2022-09-15T09:10:03.499Z,999.72
2022-09-15T09:10:44.808Z,999.73
2022-09-15T09:11:26.509Z,999.78
2022-09-15T09:12:07.135Z,999.7
2022-09-15T09:12:48.037Z,999.71
2022-09-15T09:13:32.117Z,999.74
2022-09-15T09:14:09.543Z,999.71
2022-09-15T09:14:50.065Z,999.73
2022-09-15T09:15:30.683Z,999.68
2022-09-15T09:16:11.955Z,999.7
2022-09-15T09:16:52.415Z,999.7
2022-09-15T09:17:33.325Z,999.69
2022-09-15T09:18:13.861Z,999.7
2022-09-15T09:18:54.396Z,999.68
2022-09-15T09:19:34.890Z,999.67
2022-09-15T09:20:15.462Z,999.74
2022-09-15T09:20:56.024Z,999.73
2022-09-15T09:21:36.689Z,999.76
2022-09-15T09:22:17.252Z,999.76
2022-09-15T09:22:57.786Z,999.79
2022-09-15T09:23:38.389Z,999.75
2022-09-15T09:24:18.953Z,999.76
2022-09-15T09:24:59.543Z,999.8
2022-09-15T09:25:40.036Z,999.8
2022-09-15T09:27:01.058Z,999.8
2022-09-15T09:27:41.690Z,999.84
2022-09-15T09:28:22.263Z,999.86
2022-09-15T09:29:03.919Z,999.84
2022-09-15T09:32:20.981Z,999.9
2022-09-15T09:32:58.108Z,999.9
2022-09-15T09:33:38.846Z,999.91
2022-09-15T09:34:19.201Z,999.92
2022-09-15T09:34:59.873Z,999.91
2022-09-15T09:35:40.642Z,999.94
2022-09-15T09:36:21.568Z,999.92
2022-09-15T09:37:02.361Z,999.94
2022-09-15T09:37:42.626Z,999.94
2022-09-15T09:38:26.072Z,999.92
2022-09-15T09:39:08.046Z,999.93
2022-09-15T09:42:22.136Z,999.94
2022-09-15T09:43:02.797Z,999.93
2022-09-15T09:43:43.537Z,999.93
2022-09-15T09:44:24.016Z,999.93
2022-09-15T09:45:04.642Z,999.9
2022-09-15T09:45:45.035Z,999.86
2022-09-15T09:46:25.922Z,999.93
2022-09-15T09:47:06.695Z,999.92
2022-09-15T09:47:47.325Z,999.9
2022-09-15T09:48:27.834Z,999.89
2022-09-15T09:49:08.480Z,999.92
2022-09-15T09:49:49.087Z,999.9
2022-09-15T09:50:29.870Z,999.89
2022-09-15T09:51:10.394Z,999.89
2022-09-15T09:51:51.147Z,999.89
2022-09-15T09:52:31.735Z,999.89
2022-09-15T09:53:12.287Z,999.86
2022-09-15T09:53:52.923Z,999.86
2022-09-15T09:54:33.396Z,999.88
2022-09-15T09:55:13.910Z,999.83
2022-09-15T09:55:54.396Z,999.88
2022-09-15T09:56:34.896Z,999.86
2022-09-15T09:57:15.554Z,999.88
2022-09-15T09:57:55.994Z,999.91
2022-09-15T09:58:36.531Z,999.9
2022-09-15T09:59:17.122Z,999.86
2022-09-15T09:59:57.716Z,999.88
2022-09-15T10:00:38.162Z,999.87
2022-09-15T10:01:18.698Z,999.88
2022-09-15T10:01:59.199Z,999.89
2022-09-15T10:02:39.770Z,999.87
2022-09-15T10:03:20.257Z,999.89
2022-09-15T10:04:00.826Z,999.88
2022-09-15T10:04:41.347Z,999.91
2022-09-15T10:06:02.504Z,999.9
2022-09-15T10:06:43.051Z,999.91
2022-09-15T10:07:23.574Z,999.88
2022-09-15T10:08:04.242Z,999.91
2022-09-15T10:08:44.829Z,999.93
2022-09-15T10:09:27.035Z,999.91
2022-09-15T10:10:05.821Z,999.96
2022-09-15T10:10:46.452Z,999.94
2022-09-15T10:11:27.169Z,999.93
2022-09-15T10:12:07.811Z,999.91
2022-09-15T10:12:48.514Z,999.89
2022-09-15T10:13:29.183Z,999.87
2022-09-15T10:14:09.851Z,999.86
2022-09-15T10:14:52.013Z,999.87
2022-09-15T10:15:30.948Z,999.84
2022-09-15T10:16:11.525Z,999.91
2022-09-15T10:16:52.117Z,999.86
2022-09-15T10:17:32.500Z,999.86
2022-09-15T10:18:12.963Z,999.85
2022-09-15T10:18:54.505Z,999.89
2022-09-15T10:19:34.317Z,999.82
2022-09-15T10:20:14.841Z,999.83
2022-09-15T10:20:55.445Z,999.85
2022-09-15T10:21:35.915Z,999.83
2022-09-15T10:22:16.497Z,999.84
2022-09-15T10:22:57.077Z,999.82
2022-09-15T10:23:37.580Z,999.83
2022-09-15T10:24:18.258Z,999.81
2022-09-15T10:24:58.555Z,999.78
2022-09-15T10:26:19.709Z,999.78
2022-09-15T10:27:00.135Z,999.78